Time;durP1;ratioP1;P1;durP2;ratioP2;P2;SDS_P1;SDS_P2;PMS_P1;PMS_P2;Temp;Humidity;BMP_temperature;BMP_pressure;BME280_temperature;BME280_humidity;BME280_pressure;Samples;Min_cycle;Max_cycle;Signal;HPM_P1;HPM_P2
2021/12/21 00:02:49;;;;;;;2.30;1.55;;;;;;;-0.15;78.86;100945.94;6748088;26;34714;-63
2021/12/21 00:05:53;;;;;;;3.55;1.80;;;;;;;-0.17;79.44;100931.28;6748041;26;34899;-65
2021/12/21 00:08:56;;;;;;;3.22;1.70;;;;;;;-0.24;79.45;100940.38;6748063;26;34721;-64
2021/12/21 00:12:00;;;;;;;2.42;1.60;;;;;;;-0.24;79.41;100949.03;6747868;26;34884;-65
2021/12/21 00:15:08;;;;;;;4.10;1.73;;;;;;;-0.28;78.73;100939.69;6747870;26;34116;-66
2021/12/21 00:21:39;;;;;;;2.90;1.75;;;;;;;-0.31;78.14;100941.66;6747673;26;34219;-64
2021/12/21 00:24:47;;;;;;;3.20;1.40;;;;;;;-0.28;77.84;100944.91;6747898;26;34867;-64
2021/12/21 00:27:52;;;;;;;2.87;1.37;;;;;;;-0.24;77.64;100943.00;6749152;26;35439;-64
2021/12/21 00:30:54;;;;;;;2.53;1.40;;;;;;;-0.29;77.52;100945.84;6749073;26;34213;-64
2021/12/21 00:33:59;;;;;;;2.90;1.60;;;;;;;-0.35;77.66;100948.81;6749510;26;35012;-65
2021/12/21 00:37:02;;;;;;;2.30;1.52;;;;;;;-0.41;77.38;100949.13;6729705;26;34922;-63
2021/12/21 00:40:05;;;;;;;3.03;1.60;;;;;;;-0.34;76.39;100967.91;6749496;26;34347;-64
2021/12/21 00:43:10;;;;;;;2.83;1.50;;;;;;;-0.38;76.52;100979.37;6749068;26;34201;-64
2021/12/21 00:46:13;;;;;;;3.10;1.70;;;;;;;-0.44;76.59;100989.22;6749227;26;35081;-63
2021/12/21 00:49:17;;;;;;;3.30;1.58;;;;;;;-0.50;76.19;100980.91;6749177;26;34951;-64
2021/12/21 00:52:19;;;;;;;2.95;1.52;;;;;;;-0.56;76.56;100994.25;6749136;26;34204;-64
2021/12/21 00:55:23;;;;;;;2.62;1.55;;;;;;;-0.71;75.93;101005.50;6749162;26;34988;-64
2021/12/21 00:58:25;;;;;;;1.98;1.20;;;;;;;-0.78;76.25;101022.38;6749280;26;34148;-64
2021/12/21 01:01:28;;;;;;;1.55;1.15;;;;;;;-0.73;75.77;101025.59;6749128;26;34268;-64
2021/12/21 01:04:37;;;;;;;3.92;1.45;;;;;;;-0.64;74.83;101036.38;6748924;26;34693;-64
2021/12/21 01:07:44;;;;;;;3.45;1.40;;;;;;;-0.59;74.20;101041.34;6749416;26;35600;-65
2021/12/21 01:10:55;;;;;;;2.60;1.48;;;;;;;-0.62;73.95;101036.28;6749065;26;34432;-64
2021/12/21 01:17:18;;;;;;;3.25;1.52;;;;;;;-0.67;73.29;101041.72;6748934;26;34286;-64
2021/12/21 01:27:19;;;;;;;2.83;1.30;;;;;;;-0.99;74.45;101066.00;6748951;26;34472;-64
2021/12/21 01:30:44;;;;;;;4.53;1.48;;;;;;;-1.19;75.88;101084.37;6749012;26;34979;-64
2021/12/21 01:37:05;;;;;;;4.87;1.80;;;;;;;-1.57;78.54;101091.44;6748724;26;34946;-64
2021/12/21 01:40:32;;;;;;;5.50;1.60;;;;;;;-1.52;77.99;101087.72;6748959;26;34980;-64
2021/12/21 01:43:49;;;;;;;2.17;1.50;;;;;;;-1.76;78.95;101099.28;6748720;26;35032;-64
2021/12/21 01:50:14;;;;;;;2.70;1.50;;;;;;;-1.67;78.85;101108.41;6748804;26;34986;-64
2021/12/21 01:53:17;;;;;;;3.97;1.70;;;;;;;-1.26;76.22;101115.09;6748976;26;34779;-64
2021/12/21 01:56:20;;;;;;;3.85;1.55;;;;;;;-1.25;76.11;101113.31;6728959;26;34644;-64
2021/12/21 01:59:23;;;;;;;2.85;1.50;;;;;;;-1.23;75.63;101114.09;6748877;26;35015;-64
2021/12/21 02:02:28;;;;;;;3.28;1.58;;;;;;;-1.25;75.67;101126.31;6748829;26;34902;-63
2021/12/21 02:05:31;;;;;;;4.22;1.60;;;;;;;-1.28;75.75;101110.84;6748782;26;34952;-64
2021/12/21 02:08:34;;;;;;;3.12;1.55;;;;;;;-1.17;74.86;101111.19;6748779;26;34132;-64
2021/12/21 02:11:37;;;;;;;2.40;1.20;;;;;;;-1.28;74.65;101118.66;6749218;26;34282;-64
2021/12/21 02:14:42;;;;;;;3.60;1.00;;;;;;;-1.23;74.27;101114.94;6748729;26;34575;-64
2021/12/21 02:21:26;;;;;;;3.75;1.50;;;;;;;-1.06;72.90;101108.88;6748696;26;34983;-64
2021/12/21 02:24:38;;;;;;;2.58;1.58;;;;;;;-1.11;73.04;101110.84;6748792;26;34923;-63
2021/12/21 02:27:55;;;;;;;3.25;1.60;;;;;;;-1.11;72.66;101108.25;6711981;26;34608;-64
2021/12/21 02:30:58;;;;;;;3.60;1.50;;;;;;;-1.06;72.99;101114.09;6748695;26;35003;-64
2021/12/21 02:34:01;;;;;;;3.10;1.62;;;;;;;-1.13;72.99;101108.34;6729191;26;34931;-64
2021/12/21 02:37:07;;;;;;;2.62;1.48;;;;;;;-1.16;72.76;101105.06;6748514;26;34413;-64
2021/12/21 02:40:10;;;;;;;2.50;1.55;;;;;;;-1.15;72.20;101088.50;6749013;26;34620;-64
2021/12/21 02:43:13;;;;;;;3.35;1.50;;;;;;;-1.19;72.43;101097.38;6748885;26;34313;-63
2021/12/21 02:46:16;;;;;;;2.42;1.40;;;;;;;-1.17;71.92;101101.63;6748636;26;34266;-64
2021/12/21 02:49:19;;;;;;;2.90;1.50;;;;;;;-1.20;71.80;101108.72;6748292;26;34862;-63
2021/12/21 02:52:22;;;;;;;3.05;1.60;;;;;;;-1.32;72.15;101113.62;6748465;26;34224;-63
2021/12/21 02:55:26;;;;;;;2.72;1.15;;;;;;;-1.27;71.83;101126.41;6748545;26;35009;-63
2021/12/21 02:58:28;;;;;;;4.53;1.50;;;;;;;-1.28;71.87;101129.94;6748471;26;35422;-64
2021/12/21 03:01:31;;;;;;;2.60;1.40;;;;;;;-1.27;71.66;101131.63;6748485;26;34894;-63
2021/12/21 03:04:34;;;;;;;2.87;1.02;;;;;;;-1.23;71.14;101129.69;6748453;26;35617;-63
2021/12/21 03:11:25;;;;;;;3.92;1.70;;;;;;;-1.26;70.43;101129.88;6748714;26;34870;-63
2021/12/21 03:14:22;;;;;;;3.25;1.23;;;;;;;-1.25;70.22;101128.91;6748302;26;34638;-64
2021/12/21 03:17:24;;;;;;;2.83;1.33;;;;;;;-1.27;70.32;101131.63;6748480;26;35408;-64
2021/12/21 03:20:27;;;;;;;2.22;1.23;;;;;;;-1.31;69.92;101138.72;6748789;26;34168;-63
2021/12/21 03:23:30;;;;;;;1.98;1.10;;;;;;;-1.34;70.43;101132.81;6748648;26;35036;-63
2021/12/21 03:26:34;;;;;;;2.62;1.25;;;;;;;-1.40;70.84;101135.72;6748292;26;34974;-63
2021/12/21 03:29:37;;;;;;;2.67;1.45;;;;;;;-1.43;71.09;101139.31;6748365;26;34879;-63
2021/12/21 03:32:40;;;;;;;2.55;1.25;;;;;;;-1.57;71.63;101136.53;6748173;26;34704;-63
2021/12/21 03:35:43;;;;;;;3.28;1.50;;;;;;;-1.51;71.35;101144.03;6748052;26;35635;-63
2021/12/21 03:38:54;;;;;;;1.70;1.15;;;;;;;-1.63;72.04;101142.00;6748219;26;35002;-63
2021/12/21 03:41:58;;;;;;;2.62;1.50;;;;;;;-1.77;73.38;101144.41;6748341;26;34952;-63
2021/12/21 03:45:01;;;;;;;3.22;1.30;;;;;;;-1.71;72.99;101144.12;6748066;26;34324;-63
2021/12/21 03:48:05;;;;;;;3.75;1.58;;;;;;;-1.73;72.69;101156.34;6748021;26;35612;-64
2021/12/21 03:51:09;;;;;;;3.12;1.40;;;;;;;-1.71;72.69;101169.28;6748217;26;34479;-63
2021/12/21 03:54:12;;;;;;;4.43;1.52;;;;;;;-1.74;72.69;101169.44;6748326;26;34358;-64
2021/12/21 03:57:15;;;;;;;3.55;1.17;;;;;;;-1.73;72.54;101168.50;6747996;26;34781;-63
2021/12/21 04:00:20;;;;;;;3.90;1.52;;;;;;;-1.67;72.04;101171.69;6748347;26;34194;-63
2021/12/21 04:03:23;;;;;;;3.47;1.60;;;;;;;-1.89;72.85;101171.81;6729838;26;34338;-64
2021/12/21 04:06:26;;;;;;;2.03;1.20;;;;;;;-1.79;72.91;101180.88;6749812;26;34349;-64
2021/12/21 04:09:29;;;;;;;3.95;1.40;;;;;;;-1.89;72.53;101173.59;6749299;26;35010;-64
2021/12/21 04:12:33;;;;;;;2.45;1.40;;;;;;;-1.87;72.91;101167.41;6749168;26;34429;-63
2021/12/21 04:15:43;;;;;;;3.10;1.30;;;;;;;-1.78;71.92;101181.72;6749329;26;34174;-64
2021/12/21 04:18:45;;;;;;;2.05;1.10;;;;;;;-1.77;71.78;101173.88;6749436;26;34238;-64
2021/12/21 04:21:50;;;;;;;4.32;1.25;;;;;;;-1.80;71.75;101174.03;6749109;26;34466;-64
2021/12/21 04:24:52;;;;;;;2.55;1.30;;;;;;;-1.76;71.67;101185.97;6749510;26;35543;-64
2021/12/21 04:27:55;;;;;;;2.80;1.15;;;;;;;-1.76;71.22;101198.12;6749177;26;34319;-63
2021/12/21 04:30:58;;;;;;;4.03;1.48;;;;;;;-1.77;71.31;101189.47;6749282;26;34882;-64
2021/12/21 04:34:01;;;;;;;2.72;1.10;;;;;;;-1.76;70.59;101201.56;6749371;26;34203;-64
2021/12/21 04:37:04;;;;;;;4.10;1.70;;;;;;;-1.71;70.50;101198.75;6748968;26;34911;-63
2021/12/21 04:40:12;;;;;;;2.50;1.05;;;;;;;-1.77;70.25;101199.87;6749325;26;34871;-64
2021/12/21 04:43:15;;;;;;;3.25;1.23;;;;;;;-1.71;69.25;101195.31;6749493;26;34719;-64
2021/12/21 04:46:19;;;;;;;1.70;1.02;;;;;;;-1.70;69.07;101203.06;6729414;26;34531;-64
2021/12/21 04:49:21;;;;;;;2.45;1.10;;;;;;;-1.69;69.35;101199.50;6749242;26;34968;-64
2021/12/21 04:52:24;;;;;;;2.42;0.98;;;;;;;-1.77;69.22;101199.87;6729216;26;34941;-64
2021/12/21 04:55:28;;;;;;;2.92;1.40;;;;;;;-1.73;69.47;101200.56;6749517;26;34358;-65
2021/12/21 04:58:31;;;;;;;4.43;1.23;;;;;;;-1.83;69.56;101200.16;6749014;26;34356;-64
2021/12/21 05:01:34;;;;;;;2.08;1.30;;;;;;;-1.81;69.84;101200.09;6749069;26;34934;-65
2021/12/21 05:04:38;;;;;;;3.65;1.25;;;;;;;-1.84;69.28;101200.25;6749264;26;34618;-63
2021/12/21 05:07:43;;;;;;;3.72;1.20;;;;;;;-1.80;69.68;101201.78;6749419;26;34178;-64
2021/12/21 05:10:50;;;;;;;2.78;1.27;;;;;;;-1.87;70.01;101213.34;6749029;26;34124;-64
2021/12/21 05:13:53;;;;;;;2.40;1.10;;;;;;;-1.93;69.81;101214.47;6748881;26;34364;-64
2021/12/21 05:16:56;;;;;;;3.92;1.50;;;;;;;-1.99;70.23;101222.56;6749046;26;34231;-64
2021/12/21 05:19:58;;;;;;;2.85;1.30;;;;;;;-1.97;69.76;101238.06;6749013;26;34647;-64
2021/12/21 05:23:01;;;;;;;2.20;1.20;;;;;;;-1.98;69.51;101236.38;6748882;26;34276;-64
2021/12/21 05:26:04;;;;;;;2.97;1.30;;;;;;;-1.92;68.71;101241.31;6748773;26;35045;-65
2021/12/21 05:29:07;;;;;;;3.67;1.30;;;;;;;-1.92;68.66;101244.78;6748944;26;34696;-64
2021/12/21 05:32:09;;;;;;;2.08;1.08;;;;;;;-1.85;68.63;101247.94;6729117;26;34819;-64
2021/12/21 05:35:12;;;;;;;5.85;1.67;;;;;;;-1.87;68.51;101254.97;6748761;26;34625;-64
2021/12/21 05:38:19;;;;;;;3.60;1.25;;;;;;;-1.93;69.04;101255.22;6728978;26;34386;-64
2021/12/21 05:41:41;;;;;;;2.08;1.15;;;;;;;-1.86;68.28;101251.47;6749231;26;35578;-64
2021/12/21 05:44:43;;;;;;;2.55;1.30;;;;;;;-1.79;67.41;101253.72;6748828;26;35006;-63
2021/12/21 05:47:46;;;;;;;3.05;1.23;;;;;;;-1.77;67.67;101251.03;6748990;26;34393;-64
2021/12/21 05:50:48;;;;;;;3.10;1.42;;;;;;;-1.78;67.32;101255.41;6728819;26;34866;-65
2021/12/21 05:53:51;;;;;;;3.67;1.35;;;;;;;-1.87;67.83;101248.00;6748378;26;34204;-64
2021/12/21 05:56:54;;;;;;;4.30;1.40;;;;;;;-1.91;67.97;101249.06;6729253;26;34958;-63
2021/12/21 05:59:57;;;;;;;2.83;1.50;;;;;;;-1.91;67.21;101253.41;6748809;26;34293;-64
2021/12/21 06:03:00;;;;;;;3.90;1.62;;;;;;;-1.80;66.29;101259.84;6748362;26;34326;-64
2021/12/21 06:06:03;;;;;;;3.78;1.30;;;;;;;-1.85;66.58;101273.97;6749042;26;34849;-63
2021/12/21 06:09:09;;;;;;;3.70;1.87;;;;;;;-1.96;67.25;101263.19;6748812;26;34301;-64
2021/12/21 06:12:21;;;;;;;3.95;1.67;;;;;;;-1.96;67.36;101266.63;6728938;26;34159;-64
2021/12/21 06:15:34;;;;;;;4.53;1.80;;;;;;;-1.82;65.97;101273.81;6748313;26;34240;-64
2021/12/21 06:28:44;;;;;;;2.10;1.37;;;;;;;-1.68;64.73;101301.81;6748218;26;34186;-63
2021/12/21 06:31:48;;;;;;;4.30;1.48;;;;;;;-1.56;64.10;101301.28;6748402;26;34176;-63
2021/12/21 06:34:51;;;;;;;3.30;1.65;;;;;;;-1.61;64.16;101298.03;6741237;26;34972;-64
2021/12/21 06:37:54;;;;;;;2.22;1.37;;;;;;;-1.65;64.72;101299.94;6737254;26;34931;-63
2021/12/21 06:40:56;;;;;;;5.93;1.33;;;;;;;-1.55;63.99;101301.19;6748321;26;34249;-64
2021/12/21 06:44:00;;;;;;;2.92;1.55;;;;;;;-1.51;63.77;101301.94;6748293;26;34392;-63
2021/12/21 06:53:28;;;;;;;2.33;1.20;;;;;;;-1.61;66.04;101314.50;6748083;26;34427;-63
2021/12/21 06:56:31;;;;;;;1.85;1.02;;;;;;;-1.56;66.11;101320.34;6747395;26;34415;-64
2021/12/21 06:59:34;;;;;;;4.50;1.20;;;;;;;-1.63;66.96;101318.91;6747907;26;34873;-63
2021/12/21 07:02:37;;;;;;;3.65;1.50;;;;;;;-1.61;67.38;101318.84;6748652;26;34232;-63
2021/12/21 07:05:40;;;;;;;3.83;1.20;;;;;;;-1.76;68.37;101323.81;6748172;26;34635;-64
2021/12/21 07:08:52;;;;;;;5.78;1.75;;;;;;;-1.82;68.94;101326.69;6748256;26;34292;-64
2021/12/21 07:12:19;;;;;;;3.83;1.58;;;;;;;-1.82;68.84;101326.69;6748461;26;34218;-64
2021/12/21 07:18:41;;;;;;;3.37;1.40;;;;;;;-1.81;69.21;101324.94;6747853;26;34548;-63
2021/12/21 07:21:44;;;;;;;3.78;1.75;;;;;;;-1.76;69.18;101320.38;6748286;26;34294;-63
2021/12/21 07:24:47;;;;;;;3.97;1.40;;;;;;;-1.80;69.37;101331.81;6748063;26;34293;-64
2021/12/21 07:27:50;;;;;;;4.55;1.52;;;;;;;-1.69;68.67;101326.97;6747850;26;34185;-64
2021/12/21 07:30:56;;;;;;;2.65;1.15;;;;;;;-1.66;68.93;101326.88;6748237;26;34900;-64
2021/12/21 07:33:59;;;;;;;3.25;1.52;;;;;;;-1.61;68.34;101332.72;6748061;26;34265;-64
2021/12/21 07:37:04;;;;;;;6.40;1.42;;;;;;;-1.56;68.71;101342.91;6749578;26;34356;-63
2021/12/21 07:40:08;;;;;;;3.87;1.67;;;;;;;-1.57;68.63;101344.66;6749020;26;34643;-64
2021/12/21 07:43:11;;;;;;;2.45;1.33;;;;;;;-1.56;68.60;101348.13;6748946;26;34429;-64
2021/12/21 07:46:14;;;;;;;7.80;1.35;;;;;;;-1.50;68.99;101335.66;6749551;26;34401;-64
2021/12/21 07:49:16;;;;;;;3.30;1.50;;;;;;;-1.48;68.55;101346.88;6749678;26;34216;-63
2021/12/21 07:52:19;;;;;;;3.67;1.20;;;;;;;-1.43;68.57;101339.69;6749332;26;34828;-64
2021/12/21 07:55:22;;;;;;;4.30;1.60;;;;;;;-1.44;68.57;101347.56;6749214;26;34375;-64
2021/12/21 07:58:29;;;;;;;3.92;1.77;;;;;;;-1.32;67.72;101345.28;6748925;26;34408;-64
2021/12/21 08:01:32;;;;;;;5.70;1.95;;;;;;;-1.33;67.95;101334.94;6749247;26;34860;-64
2021/12/21 08:04:36;;;;;;;3.60;1.67;;;;;;;-1.35;68.54;101342.78;6749569;26;34903;-63
2021/12/21 08:07:47;;;;;;;5.87;1.90;;;;;;;-1.36;68.84;101348.94;6749195;26;34209;-64
2021/12/21 08:10:54;;;;;;;4.15;1.90;;;;;;;-1.31;68.52;101349.53;6748577;26;35470;-64
2021/12/21 08:13:57;;;;;;;6.53;2.00;;;;;;;-1.34;68.48;101354.06;6749203;26;34267;-66
2021/12/21 08:17:00;;;;;;;6.93;2.05;;;;;;;-1.27;68.31;101347.66;6749279;26;34958;-66
2021/12/21 08:20:03;;;;;;;3.25;1.40;;;;;;;-1.21;68.21;101355.19;6749230;26;34856;-67
2021/12/21 08:23:06;;;;;;;3.37;1.40;;;;;;;-1.06;67.40;101351.03;6749108;26;34621;-66
2021/12/21 08:26:10;;;;;;;5.40;2.12;;;;;;;-0.93;66.50;101352.19;6749095;26;34348;-66
2021/12/21 08:29:13;;;;;;;5.62;1.25;;;;;;;-0.86;65.67;101356.19;6748858;26;35604;-66
2021/12/21 08:32:16;;;;;;;4.75;1.77;;;;;;;-0.87;65.70;101352.72;6748951;26;34485;-67
2021/12/21 08:35:19;;;;;;;5.50;1.85;;;;;;;-0.90;65.90;101355.47;6748679;26;35466;-66
2021/12/21 08:38:22;;;;;;;4.35;2.05;;;;;;;-0.78;66.72;101359.28;6729192;26;34719;-66
2021/12/21 08:41:26;;;;;;;5.80;2.53;;;;;;;-0.81;67.28;101366.38;6748876;26;34185;-66
2021/12/21 08:44:32;;;;;;;5.45;2.30;;;;;;;-0.83;68.17;101369.06;6748644;26;34317;-66
2021/12/21 08:47:36;;;;;;;7.45;2.80;;;;;;;-0.75;68.75;101369.56;6748543;26;34810;-67
2021/12/21 08:50:39;;;;;;;7.25;2.25;;;;;;;-0.73;69.54;101369.50;6749011;26;34924;-66
2021/12/21 08:53:42;;;;;;;4.37;1.95;;;;;;;-0.80;70.90;101371.53;6749089;26;34716;-66
2021/12/21 08:56:46;;;;;;;3.45;1.92;;;;;;;-0.69;70.54;101381.47;6749027;26;34273;-66
2021/12/21 08:59:49;;;;;;;6.82;2.30;;;;;;;-0.73;71.46;101375.56;6748936;26;34868;-67
2021/12/21 09:02:53;;;;;;;3.65;1.50;;;;;;;-0.71;71.86;101380.66;6748740;26;34295;-66
2021/12/21 09:05:56;;;;;;;3.25;1.67;;;;;;;-0.53;70.88;101383.25;6749014;26;34224;-66
2021/12/21 09:08:59;;;;;;;4.28;2.45;;;;;;;-0.51;71.01;101389.25;6749071;26;34764;-67
2021/12/21 09:12:02;;;;;;;4.72;2.03;;;;;;;-0.42;70.40;101398.38;6748893;26;35478;-66
2021/12/21 09:15:07;;;;;;;4.47;2.10;;;;;;;-0.52;71.13;101390.16;6749255;26;34845;-66
2021/12/21 09:18:10;;;;;;;6.82;2.10;;;;;;;-0.52;71.17;101392.75;6729075;26;35537;-66
2021/12/21 09:21:12;;;;;;;4.53;1.90;;;;;;;-0.46;71.77;101394.25;6748982;26;34271;-67
2021/12/21 09:24:16;;;;;;;7.35;2.20;;;;;;;-0.38;71.14;101393.84;6748981;26;34222;-66
2021/12/21 09:27:18;;;;;;;5.35;1.95;;;;;;;-0.40;70.82;101391.34;6748863;26;34181;-66
2021/12/21 09:30:23;;;;;;;4.18;2.22;;;;;;;-0.41;70.91;101396.63;6748849;26;34256;-66
2021/12/21 09:33:39;;;;;;;5.45;2.47;;;;;;;-0.32;71.21;101383.16;6748814;26;34612;-67
2021/12/21 09:36:52;;;;;;;3.42;1.70;;;;;;;-0.23;70.20;101390.53;6730917;26;34331;-67
2021/12/21 09:39:56;;;;;;;5.70;2.40;;;;;;;-0.17;69.65;101390.22;6748773;26;34910;-66
2021/12/21 09:43:00;;;;;;;4.25;2.22;;;;;;;-0.11;69.98;101387.31;6748607;26;34824;-66
2021/12/21 09:46:02;;;;;;;8.15;2.80;;;;;;;-0.02;70.43;101387.72;6748725;26;34287;-66
2021/12/21 09:49:05;;;;;;;4.05;2.17;;;;;;;0.04;70.79;101388.34;6729245;26;34254;-66
2021/12/21 09:52:09;;;;;;;7.37;2.65;;;;;;;-0.07;72.52;101383.66;6728862;26;35557;-66
2021/12/21 09:55:14;;;;;;;8.98;2.67;;;;;;;0.05;72.17;101380.41;6749024;26;34196;-66
2021/12/21 09:58:17;;;;;;;5.28;2.50;;;;;;;0.09;72.70;101373.31;6748067;26;34380;-67
2021/12/21 10:01:21;;;;;;;5.35;2.20;;;;;;;0.16;73.15;101367.69;6749060;26;34274;-66
2021/12/21 10:04:25;;;;;;;7.87;2.70;;;;;;;0.16;73.83;101365.06;6748953;26;35524;-66
2021/12/21 10:07:28;;;;;;;6.55;2.67;;;;;;;0.22;73.83;101358.72;6748438;26;34308;-66
2021/12/21 10:10:37;;;;;;;5.28;2.53;;;;;;;0.22;74.02;101354.34;6747919;26;34306;-66
2021/12/21 10:13:39;;;;;;;5.45;2.70;;;;;;;0.34;73.80;101350.22;6748340;26;34251;-66
2021/12/21 10:16:44;;;;;;;6.97;2.87;;;;;;;0.40;73.80;101348.16;6748243;26;34201;-66
2021/12/21 10:19:47;;;;;;;5.28;2.47;;;;;;;0.40;73.75;101353.38;6748865;26;34899;-66
2021/12/21 10:22:51;;;;;;;7.20;2.87;;;;;;;0.50;73.56;101351.13;6748628;26;34426;-66
2021/12/21 10:26:00;;;;;;;5.80;3.33;;;;;;;0.46;73.19;101347.00;6728727;26;34698;-66
2021/12/21 10:29:10;;;;;;;7.25;3.12;;;;;;;0.45;73.91;101345.31;5618671;31;176528;-66
2021/12/21 10:32:32;;;;;;;9.48;2.78;;;;;;;0.54;73.10;101352.66;5604453;31;34024;-66
2021/12/21 10:35:35;;;;;;;5.87;2.75;;;;;;;0.51;72.80;101334.56;5604657;31;34047;-66
2021/12/21 10:38:51;;;;;;;7.72;2.75;;;;;;;0.56;72.64;101342.16;5604140;31;33967;-66
2021/12/21 10:41:59;;;;;;;7.60;2.90;;;;;;;0.60;72.88;101334.06;5604502;31;33983;-66
2021/12/21 10:45:06;;;;;;;8.15;2.80;;;;;;;0.60;72.81;101331.47;5604312;31;33810;-66
2021/12/21 10:48:16;;;;;;;7.97;3.08;;;;;;;0.66;71.86;101327.69;5604216;31;33708;-66
2021/12/21 10:51:19;;;;;;;6.85;3.47;;;;;;;0.73;72.38;101324.66;5604439;31;33691;-66
2021/12/21 10:54:32;;;;;;;6.50;3.10;;;;;;;0.61;72.51;101327.94;5603654;31;34384;-65
2021/12/21 10:57:36;;;;;;;5.28;2.60;;;;;;;0.63;72.26;101320.03;5603083;31;33712;-66
2021/12/21 11:00:44;;;;;;;7.57;3.33;;;;;;;0.72;72.07;101316.91;5603955;31;33798;-66
2021/12/21 11:03:53;;;;;;;7.80;3.30;;;;;;;0.88;71.96;101309.91;5604365;31;33748;-66
2021/12/21 11:06:56;;;;;;;10.75;3.70;;;;;;;0.99;71.60;101306.72;5603993;31;33853;-66
2021/12/21 11:10:16;;;;;;;6.00;3.00;;;;;;;0.99;71.24;101304.13;5604053;31;33810;-66
2021/12/21 11:13:39;;;;;;;4.65;3.03;;;;;;;0.84;71.13;101305.78;5604042;31;34508;-66
2021/12/21 11:16:45;;;;;;;5.47;3.78;;;;;;;0.78;71.62;101304.34;5604188;31;34413;-65
2021/12/21 11:19:51;;;;;;;7.85;3.50;;;;;;;0.72;72.54;101296.88;5603995;31;33852;-66
2021/12/21 11:22:54;;;;;;;4.75;2.75;;;;;;;0.77;72.38;101294.84;5603848;31;33796;-66
2021/12/21 11:25:58;;;;;;;5.80;3.20;;;;;;;0.87;71.40;101284.75;5603692;31;34167;-66
2021/12/21 11:29:12;;;;;;;6.85;3.53;;;;;;;0.84;71.45;101287.50;5603556;31;34684;-66
2021/12/21 11:32:15;;;;;;;8.55;2.90;;;;;;;0.96;70.95;101299.91;5602790;31;35114;-66
2021/12/21 11:38:28;;;;;;;4.93;3.00;;;;;;;0.89;70.11;101282.88;5599185;31;33922;-66
2021/12/21 11:41:32;;;;;;;5.43;2.85;;;;;;;0.86;70.07;101285.66;5590350;31;33899;-66
2021/12/21 11:44:44;;;;;;;6.47;2.58;;;;;;;0.96;70.07;101286.84;5590698;31;33828;-66
2021/12/21 11:48:01;;;;;;;5.87;3.10;;;;;;;0.98;69.02;101286.75;5590368;31;35139;-66
2021/12/21 11:51:10;;;;;;;5.30;3.33;;;;;;;1.00;69.09;101287.53;5590287;31;33876;-66
2021/12/21 11:54:19;;;;;;;5.00;3.42;;;;;;;1.01;69.47;101279.59;5590862;31;33942;-66
2021/12/21 11:57:49;;;;;;;5.72;3.28;;;;;;;0.92;70.41;101281.88;5590222;31;34613;-66
2021/12/21 12:01:00;;;;;;;6.93;3.47;;;;;;;1.04;69.52;101283.81;5590504;31;33864;-66
2021/12/21 12:04:11;;;;;;;4.47;2.70;;;;;;;1.02;68.70;101275.19;5590719;31;33988;-66
2021/12/21 12:07:18;;;;;;;6.37;3.17;;;;;;;1.15;68.52;101274.44;5590080;31;33962;-66
2021/12/21 12:10:23;;;;;;;7.55;2.70;;;;;;;1.36;68.27;101285.44;5590495;31;33955;-66
2021/12/21 12:13:37;;;;;;;6.65;3.05;;;;;;;1.45;67.51;101274.50;5589625;31;34418;-66
2021/12/21 12:16:56;;;;;;;6.87;3.10;;;;;;;1.47;66.99;101259.53;5590091;31;34343;-66
2021/12/21 12:20:05;;;;;;;6.47;2.85;;;;;;;1.50;66.86;101269.00;5590035;31;33843;-65
2021/12/21 12:23:08;;;;;;;4.90;2.53;;;;;;;1.40;65.93;101278.28;5590126;31;34441;-67
2021/12/21 12:26:21;;;;;;;7.25;2.70;;;;;;;1.49;64.64;101269.91;5589703;31;33802;-69
2021/12/21 12:29:36;;;;;;;5.37;2.85;;;;;;;1.46;65.68;101278.75;5590114;31;35075;-66
2021/12/21 12:33:00;;;;;;;4.80;2.28;;;;;;;1.49;64.88;101264.69;5579076;31;34433;-67
2021/12/21 12:36:11;;;;;;;6.20;2.75;;;;;;;1.69;63.85;101267.81;5589742;31;34551;-67
2021/12/21 12:39:28;;;;;;;6.40;2.50;;;;;;;1.59;64.54;101266.69;5589908;31;34542;-66
2021/12/21 12:42:33;;;;;;;5.35;2.80;;;;;;;1.36;65.45;101269.75;5590042;31;33922;-66
2021/12/21 12:45:39;;;;;;;4.82;2.65;;;;;;;1.22;65.72;101259.25;5590535;31;33876;-66
2021/12/21 12:48:43;;;;;;;4.37;2.78;;;;;;;1.28;66.39;101261.53;5590321;31;33853;-67
2021/12/21 12:51:46;;;;;;;5.47;2.45;;;;;;;1.29;66.83;101258.84;5589365;31;35030;-66
2021/12/21 12:54:52;;;;;;;5.97;2.70;;;;;;;1.19;67.49;101269.88;5588961;31;35081;-66
2021/12/21 12:57:58;;;;;;;6.35;2.92;;;;;;;1.25;66.96;101259.09;5589851;31;33855;-66
2021/12/21 13:01:19;;;;;;;5.40;2.80;;;;;;;1.19;67.82;101265.50;5589729;31;34183;-66
2021/12/21 13:04:22;;;;;;;6.53;3.12;;;;;;;1.14;68.16;101264.91;5589089;31;34524;-66
2021/12/21 13:07:27;;;;;;;5.50;2.70;;;;;;;1.22;67.81;101260.09;5589039;31;33778;-66
2021/12/21 13:10:29;;;;;;;6.18;2.95;;;;;;;1.16;68.47;101265.66;5589733;31;33939;-66
2021/12/21 13:13:40;;;;;;;5.78;2.33;;;;;;;1.12;68.62;101272.00;5589176;31;34535;-66
2021/12/21 13:16:57;;;;;;;4.93;2.35;;;;;;;1.06;66.16;101266.28;5589211;31;33877;-66
2021/12/21 13:20:04;;;;;;;4.85;2.78;;;;;;;1.04;66.06;101273.34;5588893;31;33831;-66
2021/12/21 13:23:15;;;;;;;4.95;2.60;;;;;;;1.03;66.63;101269.91;5589568;31;33982;-66
2021/12/21 13:26:22;;;;;;;5.72;2.83;;;;;;;0.98;67.26;101278.91;5589380;31;35202;-66
2021/12/21 13:29:28;;;;;;;5.30;2.80;;;;;;;1.07;66.61;101273.16;5589764;31;34537;-66
2021/12/21 13:32:34;;;;;;;5.55;2.85;;;;;;;0.94;67.50;101275.62;5589423;31;33798;-66
2021/12/21 13:35:42;;;;;;;6.55;2.97;;;;;;;0.96;67.64;101276.41;5589598;31;34238;-66
2021/12/21 13:38:45;;;;;;;6.93;2.80;;;;;;;0.93;67.99;101268.72;5589536;31;33906;-66
2021/12/21 13:41:57;;;;;;;5.12;2.75;;;;;;;0.94;68.35;101278.25;5589702;31;33780;-66
2021/12/21 13:45:04;;;;;;;7.43;3.33;;;;;;;0.96;68.82;101272.94;5589250;31;34126;-66
2021/12/21 13:48:17;;;;;;;5.85;2.80;;;;;;;0.94;69.11;101277.41;5589232;31;33919;-66
2021/12/21 13:51:22;;;;;;;7.00;3.75;;;;;;;0.87;69.60;101262.06;5589666;31;35056;-66
2021/12/21 13:54:26;;;;;;;8.20;3.40;;;;;;;0.88;69.46;101265.50;5589391;31;34681;-66
2021/12/21 13:57:32;;;;;;;8.68;3.55;;;;;;;0.98;69.33;101273.69;5589112;31;33887;-66
2021/12/21 14:00:41;;;;;;;6.65;3.45;;;;;;;0.85;69.82;101271.75;5589658;31;32989;-66
2021/12/21 14:03:51;;;;;;;6.57;3.60;;;;;;;0.93;69.81;101266.09;5589141;31;34401;-66
2021/12/21 14:06:54;;;;;;;9.60;3.72;;;;;;;0.91;69.42;101267.13;5589186;31;35110;-66
2021/12/21 14:10:12;;;;;;;8.25;3.80;;;;;;;0.95;69.49;101273.87;5589087;31;33789;-66
2021/12/21 14:13:16;;;;;;;8.73;3.50;;;;;;;0.88;69.20;101268.13;5589548;31;33816;-66
2021/12/21 14:16:22;;;;;;;6.45;3.40;;;;;;;0.86;69.45;101265.62;5589142;31;34500;-66
2021/12/21 14:19:25;;;;;;;7.72;3.45;;;;;;;0.67;70.13;101269.31;5589064;31;33829;-66
2021/12/21 14:22:28;;;;;;;5.60;3.05;;;;;;;0.63;70.46;101268.63;5588994;31;33719;-66
2021/12/21 14:25:30;;;;;;;6.97;3.55;;;;;;;0.51;69.96;101271.06;5588901;31;33860;-66
2021/12/21 14:28:54;;;;;;;14.20;3.35;;;;;;;0.47;70.25;101266.94;5588773;31;34466;-66
2021/12/21 14:32:03;;;;;;;7.53;3.40;;;;;;;0.36;71.00;101273.56;5587978;31;34382;-66
2021/12/21 14:35:13;;;;;;;12.30;3.55;;;;;;;0.36;71.47;101265.72;5588916;31;35121;-66
2021/12/21 14:38:16;;;;;;;7.50;3.40;;;;;;;0.24;71.73;101268.16;5588860;31;33991;-66
2021/12/21 14:41:26;;;;;;;5.82;3.10;;;;;;;0.10;72.17;101276.66;5588503;31;33871;-66
2021/12/21 14:44:31;;;;;;;6.43;3.17;;;;;;;-0.04;73.10;101280.00;5587584;31;33914;-66
2021/12/21 14:47:35;;;;;;;6.30;3.40;;;;;;;0.03;73.40;101282.31;5588612;31;33748;-66
2021/12/21 14:50:46;;;;;;;6.10;3.67;;;;;;;-0.09;74.10;101284.59;5588419;31;33893;-65
2021/12/21 14:54:06;;;;;;;10.88;3.83;;;;;;;0.07;73.99;101287.28;5588196;31;33863;-65
2021/12/21 14:57:09;;;;;;;11.85;4.25;;;;;;;-0.02;74.44;101283.38;5588449;31;35106;-66
2021/12/21 15:00:12;;;;;;;7.20;4.07;;;;;;;0.06;74.57;101287.34;5588474;31;35050;-65
2021/12/21 15:03:17;;;;;;;7.68;3.80;;;;;;;0.06;74.85;101290.81;5588079;31;33940;-65
2021/12/21 15:06:20;;;;;;;10.18;4.15;;;;;;;0.05;74.90;101296.12;5587813;31;35019;-65
2021/12/21 15:09:23;;;;;;;9.25;4.45;;;;;;;-0.02;75.40;101287.75;5587450;31;34204;-65
2021/12/21 15:12:26;;;;;;;9.68;4.30;;;;;;;-0.13;75.66;101301.34;5587914;31;34415;-65
2021/12/21 15:15:30;;;;;;;7.35;4.18;;;;;;;-0.06;75.56;101302.72;5590042;31;33963;-65
2021/12/21 15:18:33;;;;;;;7.53;4.25;;;;;;;-0.11;76.00;101304.72;5590537;31;34468;-65